Aeroporto :
LOGIN :

Iscrizione | Disclaimer

   EN    FR    IT 

 










Sommario :    VFR   VFR Marginale   IFR   IFR Intensivo   IFR Molto Intensivo
Visibilità : 
Base nubi : 
>= 8 km
>= 3000ft
5 / 8 km
1000 / 3000 ft
1500m / 5 km
500 / 1000 ft
800 / 1500m
200 / 500 ft
< 800m
< 200 ft
Simboli :   Temporali  Nebbia  Neve Forte  Precipitazioni Forti  Vento > 20 kt
SIGMETs :   Varie  Temporali  Ghiacco  Turbolenza  Onda orograficha  Ceneri Vulcaniche






- Altitudine del aeroporto : 870 ft
- Codice IATA : ETZ


LFJL - Metz Nancy Lorraine

ULTIMO METAR :
  • 220500Z AUTO 08006KT 9999 BKN007 OVC058 16/15 Q1011 NOSIG

METARs OBSOLETI :
  • 220430Z AUTO VRB03KT 9999 BKN007 BKN014 OVC062 16/15 Q1011 NOSIG
  • 220400Z AUTO 06003KT 9999 OVC012 16/15 Q1011 TEMPO OVC005
  • 220330Z AUTO 04004KT 9999 OVC012 16/15 Q1011 TEMPO OVC005
  • 220300Z AUTO 10005KT 9999 BKN013 BKN018 15/15 Q1011 TEMPO OVC005
  • 220230Z AUTO 05005KT CAVOK 16/15 Q1010 TEMPO OVC005

TAF TAF LFJL
Valido dal 22 a 00 ore il 23 a 00 ore UTC


212300Z 2200/2224 05008KT 9999 FEW015 BKN040
TEMPO 2200/2221 -SHRA
PROB40
TEMPO 2200/2208 BKN008 SCT020TCU
PROB30
TEMPO 2200/2203 -TSRA FEW030CB
PROB40
TEMPO 2203/2207 OVC005
PROB40
TEMPO 2212/2218 VRB15G30KT 1500 TSRA SCT030CB



MetMap, La meteo Aeronautica in un colpo d'occhio ! - Copyright ORBIFLY Dicembre 2007 - Disclaimer

ORBIFLY MET'MAP TEAM :

Programmazione e sviluppo : Alexandra Zaïnal
Concezione : Baudouin d'Aumeries
Aiuto per la programmazione : Marc-Olivier Méhu
Supporto tecnico e logistico : Manuel Goepfert
Aiuto per la traduzione : Arnaldo La Scala

Contatto : metmap@orbifly.com




FONTI E CREDITI :

   NOAA